sensor_id;sensor_type;location;lat;lon;timestamp;pressure;altitude;pressure_sealevel;temperature
31921;BMP280;66485;52.128;4.436;2023-05-10T00:01:20;100911.44;;;20.02
31921;BMP280;66485;52.128;4.436;2023-05-10T00:03:46;100923.78;;;20.06
31921;BMP280;66485;52.128;4.436;2023-05-10T00:06:11;100918.75;;;20.05
31921;BMP280;66485;52.128;4.436;2023-05-10T00:08:37;100918.75;;;20.05
31921;BMP280;66485;52.128;4.436;2023-05-10T00:11:02;100912.19;;;20.02
31921;BMP280;66485;52.128;4.436;2023-05-10T00:13:28;100912.97;;;20.03
31921;BMP280;66485;52.128;4.436;2023-05-10T00:15:53;100917.28;;;20.00
31921;BMP280;66485;52.128;4.436;2023-05-10T00:18:18;100917.28;;;20.00
31921;BMP280;66485;52.128;4.436;2023-05-10T00:20:44;100911.09;;;20.00
31921;BMP280;66485;52.128;4.436;2023-05-10T00:23:11;100911.09;;;20.00
31921;BMP280;66485;52.128;4.436;2023-05-10T00:25:36;100900.97;;;20.00
31921;BMP280;66485;52.128;4.436;2023-05-10T00:28:02;100909.13;;;20.00
31921;BMP280;66485;52.128;4.436;2023-05-10T00:30:27;100909.13;;;20.00
31921;BMP280;66485;52.128;4.436;2023-05-10T00:32:52;100904.22;;;19.95
31921;BMP280;66485;52.128;4.436;2023-05-10T00:35:18;100906.41;;;20.00
31921;BMP280;66485;52.128;4.436;2023-05-10T00:37:43;100895.47;;;20.04
31921;BMP280;66485;52.128;4.436;2023-05-10T00:40:09;100897.50;;;20.00
31921;BMP280;66485;52.128;4.436;2023-05-10T00:42:34;100907.94;;;20.01
31921;BMP280;66485;52.128;4.436;2023-05-10T00:44:59;100907.94;;;20.01
31921;BMP280;66485;52.128;4.436;2023-05-10T00:47:25;100901.06;;;19.97
31921;BMP280;66485;52.128;4.436;2023-05-10T00:49:51;100901.94;;;19.94
31921;BMP280;66485;52.128;4.436;2023-05-10T00:52:17;100898.78;;;19.95
31921;BMP280;66485;52.128;4.436;2023-05-10T00:54:42;100898.78;;;19.95
31921;BMP280;66485;52.128;4.436;2023-05-10T00:57:08;100910.84;;;19.94
31921;BMP280;66485;52.128;4.436;2023-05-10T00:59:33;100916.28;;;19.94
31921;BMP280;66485;52.128;4.436;2023-05-10T01:01:59;100913.19;;;19.92
31921;BMP280;66485;52.128;4.436;2023-05-10T01:04:24;100913.19;;;19.92
31921;BMP280;66485;52.128;4.436;2023-05-10T01:06:53;100924.78;;;19.96
31921;BMP280;66485;52.128;4.436;2023-05-10T01:09:20;100935.31;;;19.94
31921;BMP280;66485;52.128;4.436;2023-05-10T01:11:45;100937.19;;;19.97
31921;BMP280;66485;52.128;4.436;2023-05-10T01:14:11;100930.22;;;19.96
31921;BMP280;66485;52.128;4.436;2023-05-10T01:16:38;100930.22;;;19.96
31921;BMP280;66485;52.128;4.436;2023-05-10T01:19:06;100944.72;;;19.90
31921;BMP280;66485;52.128;4.436;2023-05-10T01:21:59;100942.00;;;19.90
31921;BMP280;66485;52.128;4.436;2023-05-10T01:30:05;100949.72;;;19.91
31921;BMP280;66485;52.128;4.436;2023-05-10T01:35:51;100957.88;;;19.91
31921;BMP280;66485;52.128;4.436;2023-05-10T01:38:29;100961.44;;;19.88
31921;BMP280;66485;52.128;4.436;2023-05-10T01:46:34;100963.31;;;19.91
31921;BMP280;66485;52.128;4.436;2023-05-10T01:49:02;100965.03;;;19.85
31921;BMP280;66485;52.128;4.436;2023-05-10T01:51:53;100972.31;;;19.88
31921;BMP280;66485;52.128;4.436;2023-05-10T01:54:21;100967.75;;;19.85
31921;BMP280;66485;52.128;4.436;2023-05-10T01:56:52;100969.25;;;19.86
31921;BMP280;66485;52.128;4.436;2023-05-10T01:59:21;100969.25;;;19.86
31921;BMP280;66485;52.128;4.436;2023-05-10T02:01:48;100972.41;;;19.85
31921;BMP280;66485;52.128;4.436;2023-05-10T02:04:16;100971.97;;;19.86
31921;BMP280;66485;52.128;4.436;2023-05-10T02:06:42;100971.97;;;19.86
31921;BMP280;66485;52.128;4.436;2023-05-10T02:09:10;100981.66;;;19.87
31921;BMP280;66485;52.128;4.436;2023-05-10T02:11:38;100981.66;;;19.87
31921;BMP280;66485;52.128;4.436;2023-05-10T02:14:06;100981.66;;;19.87
31921;BMP280;66485;52.128;4.436;2023-05-10T02:16:32;100981.00;;;19.83
31921;BMP280;66485;52.128;4.436;2023-05-10T02:18:59;100976.22;;;19.87
31921;BMP280;66485;52.128;4.436;2023-05-10T02:21:27;100974.69;;;19.86
31921;BMP280;66485;52.128;4.436;2023-05-10T02:23:53;100974.69;;;19.86
31921;BMP280;66485;52.128;4.436;2023-05-10T02:26:21;100984.78;;;19.86
31921;BMP280;66485;52.128;4.436;2023-05-10T02:28:49;100986.78;;;19.85
31921;BMP280;66485;52.128;4.436;2023-05-10T02:31:15;100986.78;;;19.85
31921;BMP280;66485;52.128;4.436;2023-05-10T02:33:42;100989.13;;;19.83
31921;BMP280;66485;52.128;4.436;2023-05-10T02:36:08;100988.78;;;19.81
31921;BMP280;66485;52.128;4.436;2023-05-10T02:38:35;100990.22;;;19.86
31921;BMP280;66485;52.128;4.436;2023-05-10T02:41:01;100990.22;;;19.86
31921;BMP280;66485;52.128;4.436;2023-05-10T02:43:29;100989.13;;;19.83
31921;BMP280;66485;52.128;4.436;2023-05-10T02:45:57;100993.41;;;19.84
31921;BMP280;66485;52.128;4.436;2023-05-10T02:48:22;100995.75;;;19.82
31921;BMP280;66485;52.128;4.436;2023-05-10T02:50:50;100995.75;;;19.82
31921;BMP280;66485;52.128;4.436;2023-05-10T02:53:31;100994.16;;;19.85
31921;BMP280;66485;52.128;4.436;2023-05-10T02:55:59;100993.47;;;19.81
31921;BMP280;66485;52.128;4.436;2023-05-10T02:58:25;100993.47;;;19.81
31921;BMP280;66485;52.128;4.436;2023-05-10T03:00:51;100989.91;;;19.84
31921;BMP280;66485;52.128;4.436;2023-05-10T03:03:17;100997.34;;;19.80
31921;BMP280;66485;52.128;4.436;2023-05-10T03:05:42;100998.13;;;19.80
31921;BMP280;66485;52.128;4.436;2023-05-10T03:08:08;100991.84;;;19.83
31921;BMP280;66485;52.128;4.436;2023-05-10T03:10:39;100991.84;;;19.83
31921;BMP280;66485;52.128;4.436;2023-05-10T03:18:22;100995.06;;;19.78
31921;BMP280;66485;52.128;4.436;2023-05-10T03:20:50;100992.00;;;19.76
31921;BMP280;66485;52.128;4.436;2023-05-10T03:23:51;100997.78;;;19.78
31921;BMP280;66485;52.128;4.436;2023-05-10T03:26:27;100999.72;;;19.78
31921;BMP280;66485;52.128;4.436;2023-05-10T03:28:53;101004.75;;;19.79
31921;BMP280;66485;52.128;4.436;2023-05-10T03:31:19;101004.75;;;19.79
31921;BMP280;66485;52.128;4.436;2023-05-10T03:33:46;101007.09;;;19.77
31921;BMP280;66485;52.128;4.436;2023-05-10T03:36:12;101007.09;;;19.77
31921;BMP280;66485;52.128;4.436;2023-05-10T03:38:37;101009.81;;;19.77
31921;BMP280;66485;52.128;4.436;2023-05-10T03:41:02;101009.81;;;19.77
31921;BMP280;66485;52.128;4.436;2023-05-10T03:43:28;101008.63;;;19.78
31921;BMP280;66485;52.128;4.436;2023-05-10T03:45:53;101013.75;;;19.76
31921;BMP280;66485;52.128;4.436;2023-05-10T03:48:18;101015.63;;;19.79
31921;BMP280;66485;52.128;4.436;2023-05-10T03:50:44;101010.59;;;19.78
31921;BMP280;66485;52.128;4.436;2023-05-10T03:53:09;101021.47;;;19.78
31921;BMP280;66485;52.128;4.436;2023-05-10T03:55:35;101010.59;;;19.78
31921;BMP280;66485;52.128;4.436;2023-05-10T03:58:01;101001.25;;;19.79
31921;BMP280;66485;52.128;4.436;2023-05-10T04:00:26;101015.25;;;19.77
31921;BMP280;66485;52.128;4.436;2023-05-10T04:02:52;101015.25;;;19.77
31921;BMP280;66485;52.128;4.436;2023-05-10T04:05:17;101018.81;;;19.74
31921;BMP280;66485;52.128;4.436;2023-05-10T04:07:42;101029.69;;;19.74
31921;BMP280;66485;52.128;4.436;2023-05-10T04:10:09;101029.69;;;19.74
31921;BMP280;66485;52.128;4.436;2023-05-10T04:12:35;101026.97;;;19.74
31921;BMP280;66485;52.128;4.436;2023-05-10T04:15:02;101031.56;;;19.77
31921;BMP280;66485;52.128;4.436;2023-05-10T04:17:28;101032.78;;;19.76
31921;BMP280;66485;52.128;4.436;2023-05-10T04:19:53;101036.25;;;19.77
31921;BMP280;66485;52.128;4.436;2023-05-10T04:22:20;101034.72;;;19.76
31921;BMP280;66485;52.128;4.436;2023-05-10T04:24:45;101034.28;;;19.77
31921;BMP280;66485;52.128;4.436;2023-05-10T04:27:10;101035.91;;;19.75
31921;BMP280;66485;52.128;4.436;2023-05-10T04:29:36;101035.91;;;19.75
31921;BMP280;66485;52.128;4.436;2023-05-10T04:32:02;101035.13;;;19.74
31921;BMP280;66485;52.128;4.436;2023-05-10T04:34:28;101035.00;;;19.81
31921;BMP280;66485;52.128;4.436;2023-05-10T04:36:54;101038.22;;;19.76
31921;BMP280;66485;52.128;4.436;2023-05-10T04:39:19;101036.66;;;19.75
31921;BMP280;66485;52.128;4.436;2023-05-10T04:41:45;101036.66;;;19.75
31921;BMP280;66485;52.128;4.436;2023-05-10T04:44:10;101041.69;;;19.77
31921;BMP280;66485;52.128;4.436;2023-05-10T04:46:35;101048.72;;;19.74
31921;BMP280;66485;52.128;4.436;2023-05-10T04:49:01;101049.09;;;19.76
31921;BMP280;66485;52.128;4.436;2023-05-10T04:51:26;101046.38;;;19.76
31921;BMP280;66485;52.128;4.436;2023-05-10T04:53:52;101046.38;;;19.76
31921;BMP280;66485;52.128;4.436;2023-05-10T04:56:17;101044.91;;;19.72
31921;BMP280;66485;52.128;4.436;2023-05-10T04:58:42;101051.44;;;19.74
31921;BMP280;66485;52.128;4.436;2023-05-10T05:01:08;101053.41;;;19.74
31921;BMP280;66485;52.128;4.436;2023-05-10T05:03:34;101057.31;;;19.73
31921;BMP280;66485;52.128;4.436;2023-05-10T05:05:59;101054.94;;;19.75
31921;BMP280;66485;52.128;4.436;2023-05-10T05:08:25;101060.38;;;19.75
31921;BMP280;66485;52.128;4.436;2023-05-10T05:10:52;101060.38;;;19.75
31921;BMP280;66485;52.128;4.436;2023-05-10T05:13:18;101065.81;;;19.75
31921;BMP280;66485;52.128;4.436;2023-05-10T05:15:43;101065.81;;;19.75
31921;BMP280;66485;52.128;4.436;2023-05-10T05:18:09;101058.81;;;19.74
31921;BMP280;66485;52.128;4.436;2023-05-10T05:20:34;101067.75;;;19.74
31921;BMP280;66485;52.128;4.436;2023-05-10T05:23:00;101068.94;;;19.73
31921;BMP280;66485;52.128;4.436;2023-05-10T05:25:25;101068.94;;;19.73
31921;BMP280;66485;52.128;4.436;2023-05-10T05:27:51;101073.19;;;19.74
31921;BMP280;66485;52.128;4.436;2023-05-10T05:30:16;101073.19;;;19.74
31921;BMP280;66485;52.128;4.436;2023-05-10T05:32:41;101087.53;;;19.75
31921;BMP280;66485;52.128;4.436;2023-05-10T05:35:07;101085.59;;;19.75
31921;BMP280;66485;52.128;4.436;2023-05-10T05:37:33;101085.59;;;19.75
31921;BMP280;66485;52.128;4.436;2023-05-10T05:39:58;101084.06;;;19.74
31921;BMP280;66485;52.128;4.436;2023-05-10T05:42:23;101087.53;;;19.75
31921;BMP280;66485;52.128;4.436;2023-05-10T05:44:49;101090.63;;;19.77
31921;BMP280;66485;52.128;4.436;2023-05-10T05:47:14;101087.53;;;19.75
31921;BMP280;66485;52.128;4.436;2023-05-10T05:49:39;101088.63;;;19.77
31921;BMP280;66485;52.128;4.436;2023-05-10T05:52:05;101091.72;;;19.79
31921;BMP280;66485;52.128;4.436;2023-05-10T05:54:31;101089.84;;;19.76
31921;BMP280;66485;52.128;4.436;2023-05-10T05:56:57;101092.47;;;19.80
31921;BMP280;66485;52.128;4.436;2023-05-10T05:59:23;101099.47;;;19.81
31921;BMP280;66485;52.128;4.436;2023-05-10T06:01:49;101094.78;;;19.81
31921;BMP280;66485;52.128;4.436;2023-05-10T06:04:15;101097.88;;;19.83
31921;BMP280;66485;52.128;4.436;2023-05-10T06:06:40;101093.59;;;19.82
31921;BMP280;66485;52.128;4.436;2023-05-10T06:09:06;101094.78;;;19.81
31921;BMP280;66485;52.128;4.436;2023-05-10T06:11:31;101094.78;;;19.81
31921;BMP280;66485;52.128;4.436;2023-05-10T06:13:59;101102.91;;;19.85
31921;BMP280;66485;52.128;4.436;2023-05-10T06:16:25;101104.47;;;19.82
31921;BMP280;66485;52.128;4.436;2023-05-10T06:18:50;101108.31;;;19.85
31921;BMP280;66485;52.128;4.436;2023-05-10T06:21:16;101106.72;;;19.87
31921;BMP280;66485;52.128;4.436;2023-05-10T06:23:41;101121.06;;;19.88
31921;BMP280;66485;52.128;4.436;2023-05-10T06:26:06;101113.31;;;19.86
31921;BMP280;66485;52.128;4.436;2023-05-10T06:28:32;101113.41;;;19.83
31921;BMP280;66485;52.128;4.436;2023-05-10T06:30:58;101113.41;;;19.83
31921;BMP280;66485;52.128;4.436;2023-05-10T06:33:24;101110.97;;;19.88
31921;BMP280;66485;52.128;4.436;2023-05-10T06:35:49;101116.72;;;19.90
31921;BMP280;66485;52.128;4.436;2023-05-10T06:38:14;101110.56;;;19.90
31921;BMP280;66485;52.128;4.436;2023-05-10T06:40:43;101118.72;;;19.90
31921;BMP280;66485;52.128;4.436;2023-05-10T06:43:09;101109.34;;;19.91
31921;BMP280;66485;52.128;4.436;2023-05-10T06:45:35;101115.53;;;19.91
31921;BMP280;66485;52.128;4.436;2023-05-10T06:48:00;101106.63;;;19.91
31921;BMP280;66485;52.128;4.436;2023-05-10T06:50:26;101106.63;;;19.91
31921;BMP280;66485;52.128;4.436;2023-05-10T06:52:51;101123.91;;;20.00
31921;BMP280;66485;52.128;4.436;2023-05-10T06:55:17;101125.09;;;19.99
31921;BMP280;66485;52.128;4.436;2023-05-10T06:57:42;101115.84;;;19.97
31921;BMP280;66485;52.128;4.436;2023-05-10T07:00:07;101115.84;;;19.97
31921;BMP280;66485;52.128;4.436;2023-05-10T07:02:34;101126.19;;;20.05
31921;BMP280;66485;52.128;4.436;2023-05-10T07:05:00;101125.69;;;20.10
31921;BMP280;66485;52.128;4.436;2023-05-10T07:07:25;101125.69;;;20.10
31921;BMP280;66485;52.128;4.436;2023-05-10T07:09:50;101139.69;;;20.09
31921;BMP280;66485;52.128;4.436;2023-05-10T07:12:16;101140.09;;;20.07
31921;BMP280;66485;52.128;4.436;2023-05-10T07:14:42;101140.09;;;20.07
31921;BMP280;66485;52.128;4.436;2023-05-10T07:17:07;101131.75;;;20.18
31921;BMP280;66485;52.128;4.436;2023-05-10T07:19:33;101145.59;;;20.24
31921;BMP280;66485;52.128;4.436;2023-05-10T07:21:58;101138.94;;;20.25
31921;BMP280;66485;52.128;4.436;2023-05-10T07:24:23;101138.94;;;20.25
31921;BMP280;66485;52.128;4.436;2023-05-10T07:26:49;101140.88;;;20.28
31921;BMP280;66485;52.128;4.436;2023-05-10T07:29:15;101142.75;;;20.31
31921;BMP280;66485;52.128;4.436;2023-05-10T07:31:40;101142.75;;;20.31
31921;BMP280;66485;52.128;4.436;2023-05-10T07:34:08;101150.50;;;20.32
31921;BMP280;66485;52.128;4.436;2023-05-10T07:36:33;101153.22;;;20.32
31921;BMP280;66485;52.128;4.436;2023-05-10T07:38:59;101155.16;;;20.32
31921;BMP280;66485;52.128;4.436;2023-05-10T07:41:24;101153.22;;;20.32
31921;BMP280;66485;52.128;4.436;2023-05-10T07:43:50;101153.22;;;20.32
31921;BMP280;66485;52.128;4.436;2023-05-10T07:46:15;101158.19;;;20.34
31921;BMP280;66485;52.128;4.436;2023-05-10T07:48:40;101158.19;;;20.34
31921;BMP280;66485;52.128;4.436;2023-05-10T07:51:06;101155.94;;;20.32
31921;BMP280;66485;52.128;4.436;2023-05-10T07:53:34;101155.88;;;20.36
31921;BMP280;66485;52.128;4.436;2023-05-10T07:56:23;101162.84;;;20.37
31921;BMP280;66485;52.128;4.436;2023-05-10T07:58:50;101162.84;;;20.37
31921;BMP280;66485;52.128;4.436;2023-05-10T08:01:16;101159.69;;;20.38
31921;BMP280;66485;52.128;4.436;2023-05-10T08:03:41;101164.72;;;20.40
31921;BMP280;66485;52.128;4.436;2023-05-10T08:06:06;101161.56;;;20.41
31921;BMP280;66485;52.128;4.436;2023-05-10T08:08:32;101158.41;;;20.43
31921;BMP280;66485;52.128;4.436;2023-05-10T08:10:57;101169.25;;;20.46
31921;BMP280;66485;52.128;4.436;2023-05-10T08:13:22;101159.91;;;20.47
31921;BMP280;66485;52.128;4.436;2023-05-10T08:15:48;101167.28;;;20.47
31921;BMP280;66485;52.128;4.436;2023-05-10T08:18:13;101164.91;;;20.49
31921;BMP280;66485;52.128;4.436;2023-05-10T08:20:39;101170.38;;;20.49
31921;BMP280;66485;52.128;4.436;2023-05-10T08:23:04;101171.53;;;20.48
31921;BMP280;66485;52.128;4.436;2023-05-10T08:25:31;101174.25;;;20.48
31921;BMP280;66485;52.128;4.436;2023-05-10T08:27:56;101179.31;;;20.46
31921;BMP280;66485;52.128;4.436;2023-05-10T08:30:21;101182.44;;;20.48
31921;BMP280;66485;52.128;4.436;2023-05-10T08:32:47;101182.44;;;20.48
31921;BMP280;66485;52.128;4.436;2023-05-10T08:35:12;101191.34;;;20.48
31921;BMP280;66485;52.128;4.436;2023-05-10T08:37:37;101199.94;;;20.47
31921;BMP280;66485;52.128;4.436;2023-05-10T08:40:03;101199.94;;;20.47
31921;BMP280;66485;52.128;4.436;2023-05-10T08:42:30;101186.38;;;20.43
31921;BMP280;66485;52.128;4.436;2023-05-10T08:44:57;101203.34;;;20.51
31921;BMP280;66485;52.128;4.436;2023-05-10T08:47:22;101203.34;;;20.51
31921;BMP280;66485;52.128;4.436;2023-05-10T08:49:48;101212.69;;;20.50
31921;BMP280;66485;52.128;4.436;2023-05-10T08:52:17;101212.69;;;20.50
31921;BMP280;66485;52.128;4.436;2023-05-10T08:54:43;101205.75;;;20.49
31921;BMP280;66485;52.128;4.436;2023-05-10T08:57:10;101231.69;;;20.54
31921;BMP280;66485;52.128;4.436;2023-05-10T08:59:35;101228.50;;;20.55
31921;BMP280;66485;52.128;4.436;2023-05-10T09:02:04;101230.47;;;20.55
31921;BMP280;66485;52.128;4.436;2023-05-10T09:04:30;101239.00;;;20.57
31921;BMP280;66485;52.128;4.436;2023-05-10T09:06:56;101228.88;;;20.57
31921;BMP280;66485;52.128;4.436;2023-05-10T09:09:23;101228.88;;;20.57
31921;BMP280;66485;52.128;4.436;2023-05-10T09:11:48;101236.88;;;20.64
31921;BMP280;66485;52.128;4.436;2023-05-10T09:14:15;101239.53;;;20.68
31921;BMP280;66485;52.128;4.436;2023-05-10T09:16:40;101245.25;;;20.73
31921;BMP280;66485;52.128;4.436;2023-05-10T09:19:06;101252.56;;;20.76
31921;BMP280;66485;52.128;4.436;2023-05-10T09:21:35;101252.94;;;20.78
31921;BMP280;66485;52.128;4.436;2023-05-10T09:24:04;101250.16;;;20.82
31921;BMP280;66485;52.128;4.436;2023-05-10T09:26:30;101246.66;;;20.81
31921;BMP280;66485;52.128;4.436;2023-05-10T09:28:57;101243.84;;;20.85
31921;BMP280;66485;52.128;4.436;2023-05-10T09:31:23;101243.84;;;20.85
31921;BMP280;66485;52.128;4.436;2023-05-10T09:33:52;101241.78;;;20.89
31921;BMP280;66485;52.128;4.436;2023-05-10T09:36:17;101241.78;;;20.89
31921;BMP280;66485;52.128;4.436;2023-05-10T09:38:50;101247.34;;;20.85
31921;BMP280;66485;52.128;4.436;2023-05-10T09:41:23;101252.00;;;20.85
31921;BMP280;66485;52.128;4.436;2023-05-10T09:43:49;101252.00;;;20.85
31921;BMP280;66485;52.128;4.436;2023-05-10T09:46:15;101246.31;;;20.79
31921;BMP280;66485;52.128;4.436;2023-05-10T09:48:46;101255.66;;;20.78
31921;BMP280;66485;52.128;4.436;2023-05-10T09:51:24;101263.00;;;20.81
31921;BMP280;66485;52.128;4.436;2023-05-10T09:54:28;101265.97;;;20.87
31921;BMP280;66485;52.128;4.436;2023-05-10T09:56:53;101265.97;;;20.87
31921;BMP280;66485;52.128;4.436;2023-05-10T09:59:19;101268.19;;;20.92
31921;BMP280;66485;52.128;4.436;2023-05-10T10:01:49;101273.63;;;20.92
31921;BMP280;66485;52.128;4.436;2023-05-10T10:04:15;101273.63;;;20.92
31921;BMP280;66485;52.128;4.436;2023-05-10T10:06:41;101272.13;;;20.91
31921;BMP280;66485;52.128;4.436;2023-05-10T10:09:07;101284.22;;;20.90
31921;BMP280;66485;52.128;4.436;2023-05-10T10:11:37;101284.22;;;20.90
31921;BMP280;66485;52.128;4.436;2023-05-10T10:14:02;101283.06;;;20.87
31921;BMP280;66485;52.128;4.436;2023-05-10T10:16:29;101274.88;;;20.87
31921;BMP280;66485;52.128;4.436;2023-05-10T10:18:55;101290.03;;;20.88
31921;BMP280;66485;52.128;4.436;2023-05-10T10:21:21;101293.53;;;20.89
31921;BMP280;66485;52.128;4.436;2023-05-10T10:23:47;101293.53;;;20.89
31921;BMP280;66485;52.128;4.436;2023-05-10T10:26:13;101300.94;;;20.88
31921;BMP280;66485;52.128;4.436;2023-05-10T10:31:51;101292.84;;;20.85
31921;BMP280;66485;52.128;4.436;2023-05-10T10:34:25;101292.75;;;20.88
31921;BMP280;66485;52.128;4.436;2023-05-10T10:36:52;101298.66;;;20.87
31921;BMP280;66485;52.128;4.436;2023-05-10T10:39:20;101299.38;;;20.87
31921;BMP280;66485;52.128;4.436;2023-05-10T10:41:50;101299.38;;;20.87
31921;BMP280;66485;52.128;4.436;2023-05-10T10:49:48;101301.38;;;20.87
31921;BMP280;66485;52.128;4.436;2023-05-10T10:52:34;101294.13;;;20.80
31921;BMP280;66485;52.128;4.436;2023-05-10T11:00:29;101303.06;;;20.81
31921;BMP280;66485;52.128;4.436;2023-05-10T11:08:12;101312.31;;;20.83
31921;BMP280;66485;52.128;4.436;2023-05-10T11:10:39;101316.25;;;20.82
31921;BMP280;66485;52.128;4.436;2023-05-10T11:13:06;101316.25;;;20.82
31921;BMP280;66485;52.128;4.436;2023-05-10T11:15:34;101323.22;;;20.83
31921;BMP280;66485;52.128;4.436;2023-05-10T11:18:00;101321.69;;;20.82
31921;BMP280;66485;52.128;4.436;2023-05-10T11:20:41;101321.69;;;20.82
31921;BMP280;66485;52.128;4.436;2023-05-10T11:23:14;101317.75;;;20.83
31921;BMP280;66485;52.128;4.436;2023-05-10T11:25:45;101320.84;;;20.85
31921;BMP280;66485;52.128;4.436;2023-05-10T11:28:11;101320.84;;;20.85
31921;BMP280;66485;52.128;4.436;2023-05-10T11:30:41;101315.81;;;20.84
31921;BMP280;66485;52.128;4.436;2023-05-10T11:33:07;101315.81;;;20.84
31921;BMP280;66485;52.128;4.436;2023-05-10T11:35:40;101318.97;;;20.82
31921;BMP280;66485;52.128;4.436;2023-05-10T11:38:09;101325.88;;;20.87
31921;BMP280;66485;52.128;4.436;2023-05-10T11:40:36;101323.16;;;20.87
31921;BMP280;66485;52.128;4.436;2023-05-10T11:43:02;101321.63;;;20.86
31921;BMP280;66485;52.128;4.436;2023-05-10T11:45:29;101321.63;;;20.86
31921;BMP280;66485;52.128;4.436;2023-05-10T11:47:58;101320.75;;;20.89
31921;BMP280;66485;52.128;4.436;2023-05-10T11:50:25;101320.75;;;20.89
31921;BMP280;66485;52.128;4.436;2023-05-10T11:52:55;101322.31;;;20.90
31921;BMP280;66485;52.128;4.436;2023-05-10T11:55:22;101317.66;;;20.91
31921;BMP280;66485;52.128;4.436;2023-05-10T11:57:48;101317.66;;;20.91
31921;BMP280;66485;52.128;4.436;2023-05-10T12:00:16;101317.66;;;20.91
31921;BMP280;66485;52.128;4.436;2023-05-10T12:02:41;101335.94;;;20.90
31921;BMP280;66485;52.128;4.436;2023-05-10T12:05:07;101330.13;;;20.88
31921;BMP280;66485;52.128;4.436;2023-05-10T12:07:33;101332.41;;;20.89
31921;BMP280;66485;52.128;4.436;2023-05-10T12:10:06;101332.41;;;20.89
31921;BMP280;66485;52.128;4.436;2023-05-10T12:12:39;101334.38;;;20.89
31921;BMP280;66485;52.128;4.436;2023-05-10T12:15:11;101337.81;;;20.93
31921;BMP280;66485;52.128;4.436;2023-05-10T12:17:38;101337.81;;;20.93
31921;BMP280;66485;52.128;4.436;2023-05-10T12:22:41;101349.06;;;20.95
31921;BMP280;66485;52.128;4.436;2023-05-10T12:25:08;101336.94;;;20.96
31921;BMP280;66485;52.128;4.436;2023-05-10T12:27:33;101352.06;;;21.01
31921;BMP280;66485;52.128;4.436;2023-05-10T12:29:59;101342.28;;;21.03
31921;BMP280;66485;52.128;4.436;2023-05-10T12:32:41;101342.28;;;21.03
31921;BMP280;66485;52.128;4.436;2023-05-10T12:35:07;101341.50;;;21.03
31921;BMP280;66485;52.128;4.436;2023-05-10T12:37:34;101343.88;;;21.01
31921;BMP280;66485;52.128;4.436;2023-05-10T12:40:09;101349.75;;;20.99
31921;BMP280;66485;52.128;4.436;2023-05-10T12:42:36;101354.41;;;20.99
31921;BMP280;66485;52.128;4.436;2023-05-10T12:45:03;101353.97;;;21.00
31921;BMP280;66485;52.128;4.436;2023-05-10T12:47:29;101353.22;;;21.00
31921;BMP280;66485;52.128;4.436;2023-05-10T12:49:55;101353.22;;;21.00
31921;BMP280;66485;52.128;4.436;2023-05-10T12:52:20;101357.97;;;20.96
31921;BMP280;66485;52.128;4.436;2023-05-10T12:54:46;101363.41;;;20.96
31921;BMP280;66485;52.128;4.436;2023-05-10T12:57:12;101363.41;;;20.96
31921;BMP280;66485;52.128;4.436;2023-05-10T12:59:38;101363.00;;;20.97
31921;BMP280;66485;52.128;4.436;2023-05-10T13:02:03;101363.00;;;20.97
31921;BMP280;66485;52.128;4.436;2023-05-10T13:04:28;101364.19;;;20.96
31921;BMP280;66485;52.128;4.436;2023-05-10T13:06:54;101366.91;;;20.96
31921;BMP280;66485;52.128;4.436;2023-05-10T13:09:23;101366.91;;;20.96
31921;BMP280;66485;52.128;4.436;2023-05-10T13:11:48;101368.81;;;20.99
31921;BMP280;66485;52.128;4.436;2023-05-10T13:14:14;101376.97;;;20.99
31921;BMP280;66485;52.128;4.436;2023-05-10T13:16:39;101370.75;;;20.99
31921;BMP280;66485;52.128;4.436;2023-05-10T13:19:05;101366.09;;;20.99
31921;BMP280;66485;52.128;4.436;2023-05-10T13:21:30;101367.59;;;21.00
31921;BMP280;66485;52.128;4.436;2023-05-10T13:23:55;101364.88;;;21.00
31921;BMP280;66485;52.128;4.436;2023-05-10T13:26:21;101369.94;;;21.02
31921;BMP280;66485;52.128;4.436;2023-05-10T13:28:46;101371.88;;;21.01
31921;BMP280;66485;52.128;4.436;2023-05-10T13:31:11;101371.88;;;21.01
31921;BMP280;66485;52.128;4.436;2023-05-10T13:33:37;101377.16;;;21.08
31921;BMP280;66485;52.128;4.436;2023-05-10T13:36:02;101377.16;;;21.08
31921;BMP280;66485;52.128;4.436;2023-05-10T13:38:27;101378.28;;;21.11
31921;BMP280;66485;52.128;4.436;2023-05-10T13:40:53;101378.28;;;21.11
31921;BMP280;66485;52.128;4.436;2023-05-10T13:43:18;101377.25;;;21.05
31921;BMP280;66485;52.128;4.436;2023-05-10T13:45:44;101384.91;;;21.10
31921;BMP280;66485;52.128;4.436;2023-05-10T13:48:09;101374.72;;;21.14
31921;BMP280;66485;52.128;4.436;2023-05-10T13:50:34;101374.72;;;21.14
31921;BMP280;66485;52.128;4.436;2023-05-10T13:53:00;101381.63;;;21.18
31921;BMP280;66485;52.128;4.436;2023-05-10T13:55:25;101383.59;;;21.18
31921;BMP280;66485;52.128;4.436;2023-05-10T13:57:51;101380.19;;;21.14
31921;BMP280;66485;52.128;4.436;2023-05-10T14:00:16;101380.19;;;21.14
31921;BMP280;66485;52.128;4.436;2023-05-10T14:02:42;101375.22;;;21.09
31921;BMP280;66485;52.128;4.436;2023-05-10T14:05:07;101377.88;;;21.12
31921;BMP280;66485;52.128;4.436;2023-05-10T14:07:33;101377.88;;;21.12
31921;BMP280;66485;52.128;4.436;2023-05-10T14:09:58;101386.03;;;21.12
31921;BMP280;66485;52.128;4.436;2023-05-10T14:12:23;101379.41;;;21.13
31921;BMP280;66485;52.128;4.436;2023-05-10T14:14:49;101379.41;;;21.13
31921;BMP280;66485;52.128;4.436;2023-05-10T14:17:14;101389.53;;;21.13
31921;BMP280;66485;52.128;4.436;2023-05-10T14:19:39;101389.53;;;21.13
31921;BMP280;66485;52.128;4.436;2023-05-10T14:22:05;101386.41;;;21.14
31921;BMP280;66485;52.128;4.436;2023-05-10T14:24:30;101390.31;;;21.13
31921;BMP280;66485;52.128;4.436;2023-05-10T14:26:55;101388.03;;;21.12
31921;BMP280;66485;52.128;4.436;2023-05-10T14:29:21;101388.03;;;21.12
31921;BMP280;66485;52.128;4.436;2023-05-10T14:31:47;101383.75;;;21.11
31921;BMP280;66485;52.128;4.436;2023-05-10T14:34:12;101381.00;;;21.11
31921;BMP280;66485;52.128;4.436;2023-05-10T14:36:37;101378.28;;;21.11